Time;durP1;ratioP1;P1;durP2;ratioP2;P2;SDS_P1;SDS_P2;PMS_P1;PMS_P2;Temp;Humidity;BMP_temperature;BMP_pressure;BME280_temperature;BME280_humidity;BME280_pressure;Samples;Min_cycle;Max_cycle;Signal;HPM_P1;HPM_P2
2022/07/25 00:01:56;;;;;;;27.03;25.33;;;;;;;;;;5093140;28;20407;-75
2022/07/25 00:04:23;;;;;;;27.80;26.10;;;;;;;;;;5092853;28;20443;-76
2022/07/25 00:06:52;;;;;;;26.70;25.00;;;;;;;;;;5092842;28;20412;-75
2022/07/25 00:09:19;;;;;;;27.17;25.47;;;;;;;;;;5092927;28;20453;-76
2022/07/25 00:11:47;;;;;;;27.67;25.97;;;;;;;;;;5092657;28;20946;-76
2022/07/25 00:14:14;;;;;;;27.17;25.57;;;;;;;;;;5092685;28;20440;-76
2022/07/25 00:16:41;;;;;;;28.47;26.53;;;;;;;;;;5092728;28;20414;-76
2022/07/25 00:19:09;;;;;;;28.70;26.97;;;;;;;;;;5092566;28;20406;-75
2022/07/25 00:21:37;;;;;;;30.37;28.20;;;;;;;;;;5092468;28;20817;-76
2022/07/25 00:24:06;;;;;;;27.70;25.83;;;;;;;;;;5093678;28;20435;-76
2022/07/25 00:26:33;;;;;;;27.30;25.70;;;;;;;;;;5097126;28;20460;-76
2022/07/25 00:29:00;;;;;;;29.17;27.40;;;;;;;;;;5096725;28;20439;-76
2022/07/25 00:31:28;;;;;;;28.23;26.43;;;;;;;;;;5096937;28;20455;-76
2022/07/25 00:33:55;;;;;;;27.70;26.00;;;;;;;;;;5096950;28;20407;-75
2022/07/25 00:36:22;;;;;;;28.07;26.33;;;;;;;;;;5096695;28;20507;-76
2022/07/25 00:38:50;;;;;;;28.17;26.43;;;;;;;;;;5096537;28;20451;-76
2022/07/25 00:41:18;;;;;;;29.53;27.37;;;;;;;;;;5096362;28;20450;-76
2022/07/25 00:43:46;;;;;;;28.80;26.90;;;;;;;;;;5096382;28;20889;-75
2022/07/25 00:46:13;;;;;;;28.67;26.97;;;;;;;;;;5096731;28;20437;-76
2022/07/25 00:48:41;;;;;;;26.97;25.37;;;;;;;;;;5096681;28;20438;-76
2022/07/25 00:51:09;;;;;;;27.57;25.77;;;;;;;;;;5096258;28;20491;-75
2022/07/25 00:53:36;;;;;;;27.67;25.70;;;;;;;;;;5096642;28;20450;-76
2022/07/25 00:56:04;;;;;;;27.63;25.83;;;;;;;;;;5096604;28;20451;-76
2022/07/25 00:58:32;;;;;;;28.13;26.33;;;;;;;;;;5096492;28;20447;-75
2022/07/25 01:01:00;;;;;;;34.47;31.70;;;;;;;;;;5096157;28;20419;-76
2022/07/25 01:03:28;;;;;;;41.60;37.43;;;;;;;;;;5096416;28;20482;-76
2022/07/25 01:05:56;;;;;;;39.93;36.17;;;;;;;;;;5096107;28;20885;-75
2022/07/25 01:08:23;;;;;;;42.50;38.53;;;;;;;;;;5096470;28;20407;-76
2022/07/25 01:10:50;;;;;;;37.63;34.33;;;;;;;;;;5095874;28;20465;-76
2022/07/25 01:13:17;;;;;;;33.10;30.40;;;;;;;;;;5095839;28;20972;-76
2022/07/25 01:15:46;;;;;;;31.47;28.63;;;;;;;;;;5096253;28;20447;-75
2022/07/25 01:18:13;;;;;;;31.10;29.00;;;;;;;;;;5095704;28;20444;-75
2022/07/25 01:20:42;;;;;;;28.20;26.50;;;;;;;;;;5095735;28;20763;-76
2022/07/25 01:23:09;;;;;;;30.63;28.43;;;;;;;;;;5095723;28;20470;-76
2022/07/25 01:25:37;;;;;;;29.23;27.33;;;;;;;;;;5095658;28;20464;-76
2022/07/25 01:28:04;;;;;;;30.23;28.30;;;;;;;;;;5095722;28;20432;-75
2022/07/25 01:30:31;;;;;;;28.20;26.40;;;;;;;;;;5095913;28;20854;-76
2022/07/25 01:32:59;;;;;;;28.80;26.90;;;;;;;;;;5095782;28;20425;-75
2022/07/25 01:35:26;;;;;;;27.43;25.80;;;;;;;;;;5095522;28;20446;-76
2022/07/25 01:37:55;;;;;;;27.30;25.47;;;;;;;;;;5095498;28;20748;-76
2022/07/25 01:40:22;;;;;;;28.67;26.67;;;;;;;;;;5095552;28;20458;-76
2022/07/25 01:42:49;;;;;;;27.97;26.17;;;;;;;;;;5095668;28;20406;-76
2022/07/25 01:45:18;;;;;;;27.40;25.80;;;;;;;;;;5095624;28;20403;-76
2022/07/25 01:47:45;;;;;;;28.37;26.57;;;;;;;;;;5095469;28;20440;-75
2022/07/25 01:50:12;;;;;;;28.10;26.30;;;;;;;;;;5095166;28;20484;-76
2022/07/25 01:52:40;;;;;;;27.87;26.03;;;;;;;;;;5095380;28;20497;-76
2022/07/25 01:55:09;;;;;;;28.60;26.40;;;;;;;;;;5095377;28;20416;-76
2022/07/25 01:57:36;;;;;;;28.60;26.70;;;;;;;;;;5095385;28;20442;-75
2022/07/25 02:00:05;;;;;;;28.67;26.87;;;;;;;;;;5094950;28;20430;-75
2022/07/25 02:02:32;;;;;;;27.13;25.40;;;;;;;;;;5095016;28;20909;-76
2022/07/25 02:05:00;;;;;;;29.07;27.00;;;;;;;;;;5095191;28;20410;-75
2022/07/25 02:07:27;;;;;;;28.03;26.33;;;;;;;;;;5094946;28;20445;-76
2022/07/25 02:09:54;;;;;;;29.67;27.57;;;;;;;;;;5094794;28;20462;-75
2022/07/25 02:12:23;;;;;;;28.00;26.20;;;;;;;;;;5094703;28;20414;-76
2022/07/25 02:14:50;;;;;;;28.00;26.23;;;;;;;;;;5095064;28;20415;-76
2022/07/25 02:17:18;;;;;;;27.90;26.10;;;;;;;;;;5095037;28;20422;-76
2022/07/25 02:19:45;;;;;;;28.33;26.43;;;;;;;;;;5094597;28;20436;-76
2022/07/25 02:22:12;;;;;;;28.50;26.70;;;;;;;;;;5094869;28;20433;-76
2022/07/25 02:24:40;;;;;;;28.67;26.53;;;;;;;;;;5094777;28;20434;-75
2022/07/25 02:27:07;;;;;;;28.97;26.90;;;;;;;;;;5094540;28;20415;-75
2022/07/25 02:29:36;;;;;;;27.77;26.07;;;;;;;;;;5094636;28;20424;-76
2022/07/25 02:32:03;;;;;;;27.97;26.37;;;;;;;;;;5094734;28;20418;-76
2022/07/25 02:34:31;;;;;;;28.03;26.37;;;;;;;;;;5094632;28;20414;-76
2022/07/25 02:36:58;;;;;;;26.80;25.30;;;;;;;;;;5094583;28;20435;-75
2022/07/25 02:39:26;;;;;;;27.90;26.20;;;;;;;;;;5094593;28;20440;-75
2022/07/25 02:41:53;;;;;;;28.27;26.47;;;;;;;;;;5094059;28;20810;-75
2022/07/25 02:44:20;;;;;;;28.87;26.63;;;;;;;;;;5094481;28;20434;-76
2022/07/25 02:46:49;;;;;;;28.03;26.33;;;;;;;;;;5093821;28;20418;-76
2022/07/25 02:49:16;;;;;;;28.57;26.70;;;;;;;;;;5094221;28;20772;-76
2022/07/25 02:51:44;;;;;;;28.00;26.20;;;;;;;;;;5093930;28;20483;-75
2022/07/25 02:54:11;;;;;;;27.70;25.83;;;;;;;;;;5093814;28;20433;-75
2022/07/25 02:56:38;;;;;;;28.40;26.60;;;;;;;;;;5094219;28;20466;-76
2022/07/25 02:59:06;;;;;;;28.93;26.93;;;;;;;;;;5093820;28;20440;-76
2022/07/25 03:01:33;;;;;;;30.10;28.10;;;;;;;;;;5093778;28;20779;-75
2022/07/25 03:04:02;;;;;;;27.83;26.00;;;;;;;;;;5093761;28;20429;-75
2022/07/25 03:06:29;;;;;;;29.60;27.60;;;;;;;;;;5093691;28;20440;-75
2022/07/25 03:08:56;;;;;;;28.93;27.20;;;;;;;;;;5093781;28;20995;-76
2022/07/25 03:11:24;;;;;;;28.73;26.87;;;;;;;;;;5094164;28;20461;-76
2022/07/25 03:13:51;;;;;;;28.57;26.70;;;;;;;;;;5093639;28;21034;-75
2022/07/25 03:16:18;;;;;;;29.53;27.47;;;;;;;;;;5093503;28;20775;-76
2022/07/25 03:18:46;;;;;;;28.30;26.40;;;;;;;;;;5093735;28;20421;-76
2022/07/25 03:21:14;;;;;;;28.40;26.60;;;;;;;;;;5093764;28;20435;-75
2022/07/25 03:23:42;;;;;;;29.23;27.40;;;;;;;;;;5093653;28;20450;-76
2022/07/25 03:26:09;;;;;;;28.53;26.70;;;;;;;;;;5093422;28;20418;-76
2022/07/25 03:28:36;;;;;;;28.10;26.40;;;;;;;;;;5093705;28;20407;-76
2022/07/25 03:31:04;;;;;;;29.73;27.23;;;;;;;;;;5093603;28;20488;-76
2022/07/25 03:33:31;;;;;;;28.00;26.23;;;;;;;;;;5093213;28;20451;-75
2022/07/25 03:35:58;;;;;;;30.50;28.20;;;;;;;;;;5093209;28;20430;-76
2022/07/25 03:38:28;;;;;;;27.93;26.23;;;;;;;;;;5093556;28;20428;-75
2022/07/25 03:40:55;;;;;;;29.23;27.27;;;;;;;;;;5093116;28;20468;-75
2022/07/25 03:43:23;;;;;;;29.80;27.90;;;;;;;;;;5093096;28;20788;-75
2022/07/25 03:45:50;;;;;;;29.67;27.27;;;;;;;;;;5093276;28;20467;-76
2022/07/25 03:48:17;;;;;;;28.40;26.60;;;;;;;;;;5093133;28;20454;-76
2022/07/25 03:50:45;;;;;;;29.43;26.57;;;;;;;;;;5093176;28;20587;-75
2022/07/25 03:53:12;;;;;;;27.83;26.03;;;;;;;;;;5092839;28;20452;-75
2022/07/25 03:55:41;;;;;;;30.77;28.70;;;;;;;;;;5093256;28;20460;-75
2022/07/25 03:58:08;;;;;;;28.13;26.43;;;;;;;;;;5092709;28;20440;-75
2022/07/25 04:00:35;;;;;;;29.83;27.93;;;;;;;;;;5092660;28;20526;-76
2022/07/25 04:03:03;;;;;;;28.03;26.33;;;;;;;;;;5092725;28;20447;-75
2022/07/25 04:05:30;;;;;;;29.63;27.77;;;;;;;;;;5093116;28;20436;-75
2022/07/25 04:07:57;;;;;;;27.60;25.90;;;;;;;;;;5092697;28;20418;-75
2022/07/25 04:10:25;;;;;;;28.33;26.63;;;;;;;;;;5092949;28;20519;-75
2022/07/25 04:12:53;;;;;;;29.73;27.63;;;;;;;;;;5092974;28;20451;-75
2022/07/25 04:15:21;;;;;;;29.37;27.53;;;;;;;;;;5092924;28;20467;-75
2022/07/25 04:17:48;;;;;;;28.13;26.40;;;;;;;;;;5092800;28;20414;-75
2022/07/25 04:20:15;;;;;;;28.97;27.17;;;;;;;;;;5092894;28;20529;-75
2022/07/25 04:22:42;;;;;;;28.70;26.90;;;;;;;;;;5092809;28;20445;-75
2022/07/25 04:25:10;;;;;;;29.30;27.50;;;;;;;;;;5092859;28;20443;-75
2022/07/25 04:27:37;;;;;;;28.70;26.73;;;;;;;;;;5092810;28;20482;-75
2022/07/25 04:30:07;;;;;;;30.10;28.10;;;;;;;;;;5092836;28;20440;-75
2022/07/25 04:32:34;;;;;;;29.80;27.73;;;;;;;;;;5092413;28;20800;-75
2022/07/25 04:35:01;;;;;;;28.27;26.57;;;;;;;;;;5092743;28;20463;-75
2022/07/25 04:37:28;;;;;;;28.53;26.53;;;;;;;;;;5092727;28;20451;-75
2022/07/25 04:39:56;;;;;;;28.00;26.20;;;;;;;;;;5092576;28;20801;-75
2022/07/25 04:42:23;;;;;;;28.27;26.53;;;;;;;;;;5092726;28;20451;-75
2022/07/25 04:44:51;;;;;;;28.50;26.70;;;;;;;;;;5092693;28;20426;-75
2022/07/25 04:47:19;;;;;;;27.83;26.13;;;;;;;;;;5092403;28;20440;-75
2022/07/25 04:49:47;;;;;;;28.50;26.77;;;;;;;;;;5092206;28;20946;-75
2022/07/25 04:52:14;;;;;;;27.60;25.80;;;;;;;;;;5092302;28;20492;-75
2022/07/25 04:54:42;;;;;;;28.60;26.90;;;;;;;;;;5092299;28;20456;-75
2022/07/25 04:57:09;;;;;;;28.10;26.40;;;;;;;;;;5092260;28;20778;-75
2022/07/25 04:59:37;;;;;;;29.70;27.70;;;;;;;;;;5092595;28;20757;-75
2022/07/25 05:02:04;;;;;;;29.53;27.53;;;;;;;;;;5092166;28;20444;-75
2022/07/25 05:04:33;;;;;;;30.63;28.70;;;;;;;;;;5092287;28;20446;-75
2022/07/25 05:07:00;;;;;;;29.23;27.43;;;;;;;;;;5092355;28;20446;-75
2022/07/25 05:09:28;;;;;;;28.63;26.83;;;;;;;;;;5092610;28;20452;-75
2022/07/25 05:11:55;;;;;;;28.67;26.80;;;;;;;;;;5095912;28;20488;-75
2022/07/25 05:14:22;;;;;;;29.00;27.10;;;;;;;;;;5094690;28;20504;-75
2022/07/25 05:16:49;;;;;;;28.87;27.00;;;;;;;;;;5095891;28;20425;-75
2022/07/25 05:19:17;;;;;;;29.33;27.53;;;;;;;;;;5095564;28;20837;-75
2022/07/25 05:21:45;;;;;;;28.50;26.80;;;;;;;;;;5096127;28;20422;-75
2022/07/25 05:24:13;;;;;;;27.80;26.00;;;;;;;;;;5096104;28;20411;-75
2022/07/25 05:26:40;;;;;;;28.40;26.60;;;;;;;;;;5095938;28;20449;-75
2022/07/25 05:29:09;;;;;;;26.97;25.17;;;;;;;;;;5095819;28;20922;-75
2022/07/25 05:31:36;;;;;;;28.40;26.60;;;;;;;;;;5095799;28;20571;-75
2022/07/25 05:34:04;;;;;;;29.40;27.40;;;;;;;;;;5095788;28;20437;-75
2022/07/25 05:36:32;;;;;;;28.23;26.33;;;;;;;;;;5095503;28;20456;-75
2022/07/25 05:39:00;;;;;;;28.17;26.27;;;;;;;;;;5095620;28;20434;-75
2022/07/25 05:41:28;;;;;;;28.67;26.97;;;;;;;;;;5095339;28;20452;-76
2022/07/25 05:43:55;;;;;;;28.00;26.20;;;;;;;;;;5095733;28;20407;-75
2022/07/25 05:46:22;;;;;;;27.53;25.73;;;;;;;;;;5095298;28;20896;-76
2022/07/25 05:48:50;;;;;;;28.53;26.43;;;;;;;;;;5095447;28;20425;-76
2022/07/25 05:51:17;;;;;;;28.97;27.17;;;;;;;;;;5095325;28;20476;-75
2022/07/25 05:53:44;;;;;;;30.40;28.30;;;;;;;;;;5095491;28;20419;-75
2022/07/25 05:56:13;;;;;;;29.13;27.23;;;;;;;;;;5095358;28;20452;-75
2022/07/25 05:58:41;;;;;;;29.57;27.57;;;;;;;;;;5095384;28;20459;-75
2022/07/25 06:01:08;;;;;;;28.70;26.90;;;;;;;;;;5095304;28;20441;-80
2022/07/25 06:03:36;;;;;;;28.63;26.93;;;;;;;;;;5095090;28;20416;-75
2022/07/25 06:06:03;;;;;;;29.13;27.23;;;;;;;;;;5094914;28;20938;-75
2022/07/25 06:08:32;;;;;;;28.17;26.37;;;;;;;;;;5095210;28;20440;-74
2022/07/25 06:11:00;;;;;;;28.27;26.57;;;;;;;;;;5095069;28;20512;-82
2022/07/25 06:13:28;;;;;;;28.90;26.70;;;;;;;;;;5094427;28;20485;-76
2022/07/25 06:15:56;;;;;;;30.27;28.47;;;;;;;;;;5094524;28;20782;-75
2022/07/25 06:18:23;;;;;;;28.27;26.47;;;;;;;;;;5094410;28;20435;-75
2022/07/25 06:20:50;;;;;;;29.27;27.17;;;;;;;;;;5094629;28;20416;-75
2022/07/25 06:23:18;;;;;;;27.73;26.03;;;;;;;;;;5093715;28;20433;-75
2022/07/25 06:25:45;;;;;;;29.43;27.33;;;;;;;;;;5094384;28;20410;-76
2022/07/25 06:28:13;;;;;;;28.23;26.43;;;;;;;;;;5094783;28;20408;-75
2022/07/25 06:30:42;;;;;;;28.00;26.30;;;;;;;;;;5094066;28;20925;-75
2022/07/25 06:33:09;;;;;;;27.37;25.57;;;;;;;;;;5094284;28;20421;-75
2022/07/25 06:35:37;;;;;;;27.83;26.13;;;;;;;;;;5094682;28;20438;-75
2022/07/25 06:38:04;;;;;;;28.03;26.33;;;;;;;;;;5094654;28;20456;-75
2022/07/25 06:40:32;;;;;;;28.23;26.43;;;;;;;;;;5094158;28;20455;-76
2022/07/25 06:42:59;;;;;;;29.70;27.73;;;;;;;;;;5094524;28;20429;-75
2022/07/25 06:45:26;;;;;;;29.07;27.37;;;;;;;;;;5094228;28;20415;-85
2022/07/25 06:47:55;;;;;;;29.70;27.80;;;;;;;;;;5094267;28;20441;-76
2022/07/25 06:50:22;;;;;;;29.60;27.50;;;;;;;;;;5094483;28;20438;-75
2022/07/25 06:52:49;;;;;;;28.07;26.33;;;;;;;;;;5094265;28;20455;-76
2022/07/25 06:55:17;;;;;;;28.93;27.10;;;;;;;;;;5094046;28;20957;-76
2022/07/25 06:57:44;;;;;;;29.23;27.37;;;;;;;;;;5094333;28;20425;-76
2022/07/25 07:00:13;;;;;;;29.23;27.20;;;;;;;;;;5094216;28;20445;-76
2022/07/25 07:02:50;;;;;;;29.47;27.67;;;;;;;;;;5094175;28;20445;-76
2022/07/25 07:05:19;;;;;;;28.07;26.30;;;;;;;;;;5094112;28;20430;-76
2022/07/25 07:07:47;;;;;;;28.73;26.93;;;;;;;;;;5093969;28;20429;-76
2022/07/25 07:10:14;;;;;;;28.80;27.00;;;;;;;;;;5093882;28;20450;-76
2022/07/25 07:12:41;;;;;;;29.50;27.70;;;;;;;;;;5093565;28;20876;-76
2022/07/25 07:15:09;;;;;;;28.23;26.43;;;;;;;;;;5085760;28;20433;-77
2022/07/25 07:17:37;;;;;;;28.50;26.80;;;;;;;;;;5079442;28;20445;-78
2022/07/25 07:20:04;;;;;;;28.70;26.70;;;;;;;;;;5073140;28;20968;-79
2022/07/25 07:22:34;;;;;;;29.03;27.23;;;;;;;;;;5073148;28;20811;-81
2022/07/25 07:25:01;;;;;;;28.33;26.63;;;;;;;;;;5073646;28;20435;-84
2022/07/25 07:27:28;;;;;;;30.07;28.07;;;;;;;;;;5073257;28;20436;-81
2022/07/25 07:29:56;;;;;;;29.57;27.63;;;;;;;;;;5073142;28;20409;-78
2022/07/25 07:32:23;;;;;;;29.13;27.33;;;;;;;;;;5073181;28;20461;-77
2022/07/25 07:34:50;;;;;;;29.07;27.23;;;;;;;;;;5073236;28;20442;-77
2022/07/25 07:37:18;;;;;;;29.33;27.43;;;;;;;;;;5073159;28;20443;-77
2022/07/25 07:39:46;;;;;;;28.90;27.00;;;;;;;;;;5072759;28;20802;-78
2022/07/25 07:42:14;;;;;;;29.43;27.43;;;;;;;;;;5073256;28;20831;-77
2022/07/25 07:44:41;;;;;;;29.23;27.43;;;;;;;;;;5072688;28;20415;-76
2022/07/25 07:47:08;;;;;;;29.30;27.23;;;;;;;;;;5071589;28;20422;-77
2022/07/25 07:49:36;;;;;;;28.97;27.17;;;;;;;;;;5072923;28;20423;-76
2022/07/25 07:52:03;;;;;;;28.77;27.07;;;;;;;;;;5073024;28;20619;-76
2022/07/25 07:57:17;;;;;;;29.93;28.03;;;;;;;;;;5072392;28;20397;-80
2022/07/25 07:59:46;;;;;;;30.47;28.27;;;;;;;;;;5072754;28;20404;-76
2022/07/25 08:02:15;;;;;;;31.27;29.23;;;;;;;;;;5072960;28;20433;-76
2022/07/25 08:04:42;;;;;;;29.90;27.90;;;;;;;;;;5072574;28;20490;-77
2022/07/25 08:07:09;;;;;;;28.63;26.83;;;;;;;;;;5072640;28;20433;-83
2022/07/25 08:09:37;;;;;;;31.17;29.27;;;;;;;;;;5072769;28;20815;-79
2022/07/25 08:12:04;;;;;;;28.90;27.00;;;;;;;;;;5072457;28;20530;-81
2022/07/25 08:14:33;;;;;;;30.17;28.37;;;;;;;;;;5072670;28;20419;-77
2022/07/25 08:17:00;;;;;;;29.90;28.00;;;;;;;;;;5072762;28;20786;-78
2022/07/25 08:19:28;;;;;;;29.83;27.90;;;;;;;;;;5072574;28;20418;-79
2022/07/25 08:21:55;;;;;;;30.77;28.97;;;;;;;;;;5073549;28;20413;-92
2022/07/25 08:24:23;;;;;;;30.33;28.50;;;;;;;;;;5073281;28;20844;-87
2022/07/25 08:26:50;;;;;;;29.50;27.73;;;;;;;;;;5073661;28;20441;-84
2022/07/25 08:29:17;;;;;;;30.20;28.40;;;;;;;;;;5073524;28;20426;-89
2022/07/25 08:31:46;;;;;;;30.23;28.30;;;;;;;;;;5073855;28;20485;-91
2022/07/25 08:34:14;;;;;;;28.67;26.87;;;;;;;;;;5074280;28;20444;-90
2022/07/25 08:36:41;;;;;;;29.37;27.47;;;;;;;;;;5072563;28;20506;-90
2022/07/25 08:39:09;;;;;;;29.27;27.47;;;;;;;;;;5072574;28;20410;-90
2022/07/25 08:41:36;;;;;;;30.20;28.20;;;;;;;;;;5072279;28;20548;-88
2022/07/25 08:44:04;;;;;;;30.20;28.30;;;;;;;;;;5073433;28;20440;-86
2022/07/25 08:46:31;;;;;;;30.40;28.40;;;;;;;;;;5076194;28;20423;-83
2022/07/25 08:49:00;;;;;;;29.67;27.77;;;;;;;;;;5076647;28;20440;-84
2022/07/25 08:51:27;;;;;;;28.87;27.07;;;;;;;;;;5076135;28;20415;-82
2022/07/25 08:53:55;;;;;;;29.60;27.80;;;;;;;;;;5076932;28;20467;-86
2022/07/25 08:56:22;;;;;;;30.07;28.07;;;;;;;;;;5076487;28;20415;-86
2022/07/25 08:58:50;;;;;;;31.43;29.37;;;;;;;;;;5076900;28;20444;-86
2022/07/25 09:01:18;;;;;;;29.60;27.70;;;;;;;;;;5075204;28;20413;-84
2022/07/25 09:03:45;;;;;;;29.87;28.07;;;;;;;;;;5076834;28;20801;-85
2022/07/25 09:06:19;;;;;;;30.40;28.30;;;;;;;;;;5077004;28;20443;-86
2022/07/25 09:08:56;;;;;;;30.17;28.33;;;;;;;;;;5076395;28;20409;-90
2022/07/25 09:11:27;;;;;;;29.30;27.60;;;;;;;;;;5076209;28;20426;-81
2022/07/25 09:13:58;;;;;;;30.07;27.90;;;;;;;;;;5076024;28;20473;-80
2022/07/25 09:16:30;;;;;;;30.13;28.30;;;;;;;;;;5075667;28;20957;-79
2022/07/25 09:19:06;;;;;;;30.67;28.77;;;;;;;;;;5075640;28;20417;-80
2022/07/25 09:21:35;;;;;;;30.37;28.20;;;;;;;;;;5075968;28;20437;-82
2022/07/25 09:26:45;;;;;;;29.60;27.40;;;;;;;;;;5163337;22;20491;-80
2022/07/25 09:29:17;;;;;;;29.60;27.80;;;;;;;;;;5034790;28;20891;-82
2022/07/25 09:31:44;;;;;;;29.40;27.50;;;;;;;;;;5036228;28;20443;-84
2022/07/25 09:34:12;;;;;;;29.20;27.30;;;;;;;;;;5036674;28;20836;-89
2022/07/25 09:36:51;;;;;;;28.40;26.60;;;;;;;;;;5037551;28;20410;-85
2022/07/25 09:39:18;;;;;;;27.80;26.10;;;;;;;;;;5036411;28;20451;-93
2022/07/25 09:41:48;;;;;;;29.67;27.77;;;;;;;;;;5036835;28;20444;-90
2022/07/25 09:44:21;;;;;;;29.93;27.93;;;;;;;;;;5036874;28;20442;-90
2022/07/25 09:46:49;;;;;;;30.17;28.07;;;;;;;;;;5036984;28;20505;-91
2022/07/25 09:49:16;;;;;;;31.27;29.27;;;;;;;;;;5035522;28;20443;-83
2022/07/25 09:51:46;;;;;;;29.43;27.63;;;;;;;;;;5035246;28;20486;-84
2022/07/25 09:54:14;;;;;;;30.27;28.47;;;;;;;;;;5030662;28;20447;-84
2022/07/25 09:56:41;;;;;;;30.00;28.20;;;;;;;;;;5033726;28;20426;-83
2022/07/25 09:59:08;;;;;;;30.67;28.77;;;;;;;;;;5035907;28;20887;-82
2022/07/25 10:01:37;;;;;;;29.20;27.40;;;;;;;;;;5035208;28;20425;-82
2022/07/25 10:04:17;;;;;;;30.77;28.57;;;;;;;;;;5043823;28;20437;-90
2022/07/25 10:06:50;;;;;;;31.37;29.47;;;;;;;;;;5056235;28;20838;-90
2022/07/25 10:09:18;;;;;;;30.37;28.47;;;;;;;;;;5056264;28;20802;-89
2022/07/25 10:12:00;;;;;;;31.00;29.00;;;;;;;;;;5055981;28;20438;-89
2022/07/25 10:14:28;;;;;;;29.10;27.30;;;;;;;;;;5055935;28;20441;-89
2022/07/25 10:16:55;;;;;;;30.40;28.40;;;;;;;;;;5055900;28;20425;-89
2022/07/25 10:19:36;;;;;;;30.13;28.23;;;;;;;;;;5055032;28;20447;-90
2022/07/25 10:22:05;;;;;;;30.20;28.40;;;;;;;;;;5055789;28;20439;-89
2022/07/25 10:24:34;;;;;;;30.60;28.70;;;;;;;;;;5042681;28;20449;-89
2022/07/25 10:27:08;;;;;;;32.20;29.80;;;;;;;;;;5035458;28;20454;-89
2022/07/25 10:29:35;;;;;;;31.80;29.87;;;;;;;;;;5036125;28;20446;-89
2022/07/25 10:32:07;;;;;;;30.50;28.60;;;;;;;;;;5036259;28;20415;-91
2022/07/25 10:34:35;;;;;;;30.63;28.73;;;;;;;;;;5031358;28;20441;-91
2022/07/25 10:37:14;;;;;;;31.73;29.63;;;;;;;;;;5016475;28;20420;-88
2022/07/25 10:39:44;;;;;;;31.00;28.97;;;;;;;;;;5015817;28;20449;-83
2022/07/25 10:42:14;;;;;;;30.63;28.57;;;;;;;;;;4997982;28;20545;-86
2022/07/25 10:44:42;;;;;;;31.67;29.33;;;;;;;;;;5016983;28;20866;-85
2022/07/25 10:47:11;;;;;;;30.20;28.30;;;;;;;;;;5015892;28;20423;-89
2022/07/25 10:49:40;;;;;;;30.47;28.67;;;;;;;;;;5015774;28;20503;-90
2022/07/25 10:52:08;;;;;;;32.53;30.50;;;;;;;;;;5016519;28;20451;-91
2022/07/25 10:54:38;;;;;;;32.40;30.40;;;;;;;;;;5016117;28;20411;-90
2022/07/25 10:57:06;;;;;;;32.13;30.13;;;;;;;;;;5015548;28;20427;-89
2022/07/25 10:59:36;;;;;;;32.00;30.10;;;;;;;;;;5015701;28;20435;-89
2022/07/25 11:02:03;;;;;;;31.97;29.67;;;;;;;;;;5015542;28;20412;-90
2022/07/25 11:04:31;;;;;;;30.90;29.00;;;;;;;;;;5016703;28;20937;-89
2022/07/25 11:06:58;;;;;;;31.73;29.57;;;;;;;;;;5014651;28;20449;-90
2022/07/25 11:09:26;;;;;;;32.33;30.40;;;;;;;;;;5015346;28;20448;-90
2022/07/25 11:11:56;;;;;;;32.10;30.20;;;;;;;;;;5015726;28;20411;-89
2022/07/25 11:14:24;;;;;;;29.90;28.00;;;;;;;;;;5015226;28;20459;-90
2022/07/25 11:16:52;;;;;;;30.20;28.20;;;;;;;;;;5015163;28;20461;-90
2022/07/25 11:19:21;;;;;;;30.57;28.60;;;;;;;;;;5015395;28;20773;-90
2022/07/25 11:21:49;;;;;;;30.47;28.23;;;;;;;;;;5015444;28;20423;-89
2022/07/25 11:24:17;;;;;;;30.53;28.53;;;;;;;;;;5015350;28;20473;-89
2022/07/25 11:26:49;;;;;;;29.73;27.90;;;;;;;;;;5014786;28;20451;-89
2022/07/25 11:29:22;;;;;;;29.17;27.27;;;;;;;;;;5015286;28;20773;-90
2022/07/25 11:31:54;;;;;;;30.17;28.13;;;;;;;;;;5014856;28;20424;-90
2022/07/25 11:34:23;;;;;;;30.60;28.60;;;;;;;;;;5015610;28;20458;-90
2022/07/25 11:36:51;;;;;;;30.70;28.37;;;;;;;;;;5014731;28;20465;-89
2022/07/25 11:39:19;;;;;;;30.50;28.60;;;;;;;;;;5014820;28;20427;-89
2022/07/25 11:41:46;;;;;;;29.93;28.00;;;;;;;;;;5015249;28;20501;-89
2022/07/25 11:44:13;;;;;;;31.07;29.17;;;;;;;;;;5013739;28;20460;-89
2022/07/25 11:46:46;;;;;;;29.43;27.63;;;;;;;;;;5015338;28;20516;-90
2022/07/25 11:49:13;;;;;;;30.20;28.30;;;;;;;;;;5014457;28;20477;-90
2022/07/25 11:51:41;;;;;;;29.57;27.70;;;;;;;;;;5014827;28;20508;-90
2022/07/25 11:54:09;;;;;;;29.90;28.10;;;;;;;;;;5013416;28;20466;-90
2022/07/25 11:56:42;;;;;;;31.60;29.50;;;;;;;;;;5015353;28;20475;-91
2022/07/25 11:59:10;;;;;;;29.60;27.90;;;;;;;;;;5014960;28;20462;-91
2022/07/25 12:01:37;;;;;;;30.80;28.80;;;;;;;;;;5014807;28;20444;-80
2022/07/25 12:04:10;;;;;;;29.87;27.50;;;;;;;;;;5015214;28;20447;-92
2022/07/25 12:06:38;;;;;;;30.23;28.20;;;;;;;;;;5015461;28;20474;-88
2022/07/25 12:09:12;;;;;;;29.80;28.00;;;;;;;;;;5014186;28;20908;-86
2022/07/25 12:11:40;;;;;;;30.60;28.60;;;;;;;;;;5017509;28;21104;-85
2022/07/25 12:14:08;;;;;;;31.23;29.13;;;;;;;;;;5023490;28;20797;-82
2022/07/25 12:16:36;;;;;;;31.87;29.83;;;;;;;;;;5028439;28;20480;-91
2022/07/25 12:19:03;;;;;;;30.20;27.67;;;;;;;;;;5033912;28;20807;-91
2022/07/25 12:21:32;;;;;;;29.40;27.20;;;;;;;;;;5033415;28;20426;-91
2022/07/25 12:23:59;;;;;;;29.47;27.37;;;;;;;;;;5033928;28;20489;-91
2022/07/25 12:26:27;;;;;;;28.93;27.13;;;;;;;;;;5033820;28;20497;-91
2022/07/25 12:28:54;;;;;;;30.77;28.77;;;;;;;;;;5034598;28;20461;-90
2022/07/25 12:31:23;;;;;;;30.10;28.20;;;;;;;;;;5033711;28;20442;-82
2022/07/25 12:33:51;;;;;;;31.13;29.13;;;;;;;;;;5033961;28;20486;-90
2022/07/25 12:36:18;;;;;;;30.33;28.33;;;;;;;;;;5033936;28;20482;-85
2022/07/25 12:38:47;;;;;;;32.33;30.07;;;;;;;;;;5033470;28;20433;-86
2022/07/25 12:41:15;;;;;;;29.70;27.80;;;;;;;;;;5033652;28;20773;-86
2022/07/25 12:43:42;;;;;;;31.83;28.90;;;;;;;;;;5033878;28;20501;-86
2022/07/25 12:46:09;;;;;;;32.30;30.10;;;;;;;;;;5033837;28;20416;-86
2022/07/25 12:48:37;;;;;;;31.63;29.43;;;;;;;;;;5033402;28;20414;-87
2022/07/25 12:51:05;;;;;;;30.47;28.50;;;;;;;;;;5033547;28;20439;-87
2022/07/25 12:53:32;;;;;;;30.47;28.53;;;;;;;;;;5033595;28;20811;-86
2022/07/25 12:56:01;;;;;;;30.50;28.30;;;;;;;;;;5033254;28;20421;-87
2022/07/25 12:58:29;;;;;;;28.80;27.00;;;;;;;;;;5033851;28;20788;-86
2022/07/25 13:00:56;;;;;;;29.50;27.60;;;;;;;;;;5033833;28;20439;-86
2022/07/25 13:03:24;;;;;;;31.30;29.30;;;;;;;;;;5033425;28;20901;-86
2022/07/25 13:05:51;;;;;;;29.70;27.80;;;;;;;;;;5033245;28;20435;-85
2022/07/25 13:08:19;;;;;;;29.93;28.13;;;;;;;;;;5033389;28;20413;-85
2022/07/25 13:10:46;;;;;;;29.40;27.50;;;;;;;;;;5033498;28;20435;-87
2022/07/25 13:13:15;;;;;;;29.07;27.07;;;;;;;;;;5033577;28;20956;-88
2022/07/25 13:15:43;;;;;;;28.63;26.83;;;;;;;;;;5033387;28;20426;-85
2022/07/25 13:18:10;;;;;;;29.60;27.80;;;;;;;;;;5033576;28;20426;-90
2022/07/25 13:20:37;;;;;;;30.13;28.23;;;;;;;;;;5033400;28;20430;-89
2022/07/25 13:23:06;;;;;;;29.77;27.77;;;;;;;;;;5030334;28;20819;-88
2022/07/25 13:25:34;;;;;;;30.17;28.17;;;;;;;;;;5016893;28;20486;-86
2022/07/25 13:28:03;;;;;;;29.70;27.70;;;;;;;;;;5013432;28;20439;-82
2022/07/25 13:30:32;;;;;;;30.40;28.40;;;;;;;;;;5013360;28;20444;-88
2022/07/25 13:32:59;;;;;;;30.10;28.20;;;;;;;;;;5017045;28;20452;-96
2022/07/25 13:35:27;;;;;;;30.77;28.80;;;;;;;;;;5018382;28;20426;-96
2022/07/25 13:37:54;;;;;;;29.80;27.90;;;;;;;;;;5019418;28;20437;-96
2022/07/25 13:40:22;;;;;;;28.00;26.23;;;;;;;;;;5023812;28;20397;-95
2022/07/25 13:42:49;;;;;;;29.20;27.20;;;;;;;;;;5021727;28;20446;-96
2022/07/25 13:45:17;;;;;;;30.40;28.30;;;;;;;;;;5017935;28;20475;-96
2022/07/25 13:47:46;;;;;;;30.30;28.27;;;;;;;;;;5021951;28;20451;-96
2022/07/25 13:50:13;;;;;;;31.43;29.27;;;;;;;;;;5022287;28;20435;-94
2022/07/25 13:52:40;;;;;;;28.50;26.60;;;;;;;;;;5017731;28;20437;-86
2022/07/25 13:55:09;;;;;;;29.87;27.67;;;;;;;;;;5015765;28;20483;-85
2022/07/25 13:57:37;;;;;;;31.30;29.20;;;;;;;;;;5015948;28;20446;-84
2022/07/25 14:00:05;;;;;;;30.63;28.63;;;;;;;;;;5015680;28;20449;-82
2022/07/25 14:02:32;;;;;;;31.93;29.80;;;;;;;;;;5015820;28;20525;-88
2022/07/25 14:05:01;;;;;;;31.37;29.27;;;;;;;;;;5017239;28;20426;-91
2022/07/25 14:07:28;;;;;;;31.80;29.30;;;;;;;;;;5017869;28;20421;-87
2022/07/25 14:09:56;;;;;;;30.83;28.83;;;;;;;;;;5017431;28;20450;-94
2022/07/25 14:12:23;;;;;;;32.83;30.50;;;;;;;;;;5016393;28;20499;-93
2022/07/25 14:14:50;;;;;;;30.70;28.60;;;;;;;;;;5016408;28;20487;-92
2022/07/25 14:17:18;;;;;;;32.37;30.33;;;;;;;;;;5016332;28;20467;-93
2022/07/25 14:19:45;;;;;;;29.23;27.37;;;;;;;;;;5016641;28;20411;-91
2022/07/25 14:22:14;;;;;;;30.20;28.20;;;;;;;;;;5016789;28;20491;-93
2022/07/25 14:24:41;;;;;;;30.77;28.47;;;;;;;;;;5016619;28;20444;-93
2022/07/25 14:27:09;;;;;;;31.27;29.07;;;;;;;;;;5015956;28;20461;-89